LGKZ/KZI METAR and TAF weather

Enter ICAO airport designator
Station Type Date Time Source
LGKZ METAR 2021/02/25 01:20 UTC NOAA

LGKZ 250120Z AUTO 32004KT 270V330 //// // ////// 05/M01 Q1033 RE//


Station Type Date Time Source
LGKZ Decoded METAR 2021/02/25 01:20 UTC NOAA

Kozani Airport , Greece (LGKZ) 40-18N 021-47E 627M
Feb 24, 2021 - 08:20 PM EST / 2021.02.25 0120 UTC
Wind: from the NW (320 degrees) at 5 MPH (4 KT) (direction variable):0
Temperature: 41 F (5 C)
Dew Point: 30 F (-1 C)
Relative Humidity: 65%
Pressure (altimeter): 30.50 in. Hg (1033 hPa)
ob: LGKZ 250120Z AUTO 32004KT 270V330 //// // ////// 05/M01 Q1033 RE//
cycle: 1

Station Type Date Time Source
LGKZ TAF UTC NOAA

Error!

Example: see airport list